sensor_id;sensor_type;location;lat;lon;timestamp;P1;durP1;ratioP1;P2;durP2;ratioP2
39448;SDS011;25151;45.566;9.382;2023-07-13T00:01:14;6.50;;;2.90;;
39448;SDS011;25151;45.566;9.382;2023-07-13T00:03:47;6.25;;;2.70;;
39448;SDS011;25151;45.566;9.382;2023-07-13T00:06:15;6.35;;;2.90;;
39448;SDS011;25151;45.566;9.382;2023-07-13T00:08:53;5.13;;;2.88;;
39448;SDS011;25151;45.566;9.382;2023-07-13T00:11:25;7.65;;;2.83;;
39448;SDS011;25151;45.566;9.382;2023-07-13T00:13:57;6.55;;;2.70;;
39448;SDS011;25151;45.566;9.382;2023-07-13T00:16:25;6.90;;;2.50;;
39448;SDS011;25151;45.566;9.382;2023-07-13T00:18:58;6.35;;;2.95;;
39448;SDS011;25151;45.566;9.382;2023-07-13T00:21:29;4.50;;;2.63;;
39448;SDS011;25151;45.566;9.382;2023-07-13T00:23:57;5.72;;;2.45;;
39448;SDS011;25151;45.566;9.382;2023-07-13T00:26:28;4.97;;;2.65;;
39448;SDS011;25151;45.566;9.382;2023-07-13T00:29:00;3.83;;;2.33;;
39448;SDS011;25151;45.566;9.382;2023-07-13T00:31:34;6.00;;;2.47;;
39448;SDS011;25151;45.566;9.382;2023-07-13T00:34:04;4.25;;;2.50;;
39448;SDS011;25151;45.566;9.382;2023-07-13T00:36:34;4.53;;;2.60;;
39448;SDS011;25151;45.566;9.382;2023-07-13T00:39:04;5.03;;;2.60;;
39448;SDS011;25151;45.566;9.382;2023-07-13T00:44:13;5.53;;;2.55;;
39448;SDS011;25151;45.566;9.382;2023-07-13T00:46:46;5.82;;;2.47;;
39448;SDS011;25151;45.566;9.382;2023-07-13T00:49:23;2.97;;;2.15;;
39448;SDS011;25151;45.566;9.382;2023-07-13T00:51:58;6.43;;;2.13;;
39448;SDS011;25151;45.566;9.382;2023-07-13T00:54:36;4.15;;;2.58;;
39448;SDS011;25151;45.566;9.382;2023-07-13T00:57:09;4.03;;;2.38;;
39448;SDS011;25151;45.566;9.382;2023-07-13T00:59:45;5.03;;;2.33;;
39448;SDS011;25151;45.566;9.382;2023-07-13T01:02:20;4.95;;;2.63;;
39448;SDS011;25151;45.566;9.382;2023-07-13T01:04:52;3.47;;;2.28;;
39448;SDS011;25151;45.566;9.382;2023-07-13T01:07:20;3.97;;;2.00;;
39448;SDS011;25151;45.566;9.382;2023-07-13T01:09:53;4.88;;;2.70;;
39448;SDS011;25151;45.566;9.382;2023-07-13T01:12:23;6.68;;;2.50;;
39448;SDS011;25151;45.566;9.382;2023-07-13T01:14:56;7.93;;;2.65;;
39448;SDS011;25151;45.566;9.382;2023-07-13T01:17:29;5.55;;;2.17;;
39448;SDS011;25151;45.566;9.382;2023-07-13T01:20:01;3.47;;;2.13;;
39448;SDS011;25151;45.566;9.382;2023-07-13T01:22:30;4.93;;;2.30;;
39448;SDS011;25151;45.566;9.382;2023-07-13T01:25:00;5.85;;;2.80;;
39448;SDS011;25151;45.566;9.382;2023-07-13T01:27:27;4.30;;;2.50;;
39448;SDS011;25151;45.566;9.382;2023-07-13T01:30:04;4.72;;;2.50;;
39448;SDS011;25151;45.566;9.382;2023-07-13T01:32:35;5.10;;;2.28;;
39448;SDS011;25151;45.566;9.382;2023-07-13T01:35:07;5.18;;;2.67;;
39448;SDS011;25151;45.566;9.382;2023-07-13T01:37:35;4.93;;;2.30;;
39448;SDS011;25151;45.566;9.382;2023-07-13T01:40:06;4.95;;;2.28;;
39448;SDS011;25151;45.566;9.382;2023-07-13T01:42:37;3.83;;;2.10;;
39448;SDS011;25151;45.566;9.382;2023-07-13T01:45:12;3.65;;;2.47;;
39448;SDS011;25151;45.566;9.382;2023-07-13T01:50:09;7.38;;;2.20;;
39448;SDS011;25151;45.566;9.382;2023-07-13T01:52:39;3.83;;;1.98;;
39448;SDS011;25151;45.566;9.382;2023-07-13T01:57:40;6.75;;;2.47;;
39448;SDS011;25151;45.566;9.382;2023-07-13T02:00:10;4.47;;;2.35;;
39448;SDS011;25151;45.566;9.382;2023-07-13T02:02:41;3.90;;;1.92;;
39448;SDS011;25151;45.566;9.382;2023-07-13T02:05:16;4.90;;;2.35;;
39448;SDS011;25151;45.566;9.382;2023-07-13T02:07:44;3.88;;;2.28;;
39448;SDS011;25151;45.566;9.382;2023-07-13T02:10:17;4.93;;;1.80;;
39448;SDS011;25151;45.566;9.382;2023-07-13T02:12:48;5.07;;;2.10;;
39448;SDS011;25151;45.566;9.382;2023-07-13T02:15:16;4.07;;;2.15;;
39448;SDS011;25151;45.566;9.382;2023-07-13T02:17:49;5.70;;;2.33;;
39448;SDS011;25151;45.566;9.382;2023-07-13T02:20:16;3.70;;;2.03;;
39448;SDS011;25151;45.566;9.382;2023-07-13T02:22:46;3.72;;;2.28;;
39448;SDS011;25151;45.566;9.382;2023-07-13T02:25:16;4.10;;;2.15;;
39448;SDS011;25151;45.566;9.382;2023-07-13T02:27:47;6.25;;;2.25;;
39448;SDS011;25151;45.566;9.382;2023-07-13T02:30:17;4.18;;;2.17;;
39448;SDS011;25151;45.566;9.382;2023-07-13T02:32:50;3.95;;;2.40;;
39448;SDS011;25151;45.566;9.382;2023-07-13T02:37:52;3.17;;;1.85;;
39448;SDS011;25151;45.566;9.382;2023-07-13T02:40:22;3.60;;;2.30;;
39448;SDS011;25151;45.566;9.382;2023-07-13T02:42:53;4.47;;;2.50;;
39448;SDS011;25151;45.566;9.382;2023-07-13T02:45:23;4.28;;;2.13;;
39448;SDS011;25151;45.566;9.382;2023-07-13T02:47:55;3.22;;;1.80;;
39448;SDS011;25151;45.566;9.382;2023-07-13T02:50:25;3.90;;;2.00;;
39448;SDS011;25151;45.566;9.382;2023-07-13T02:52:58;3.65;;;2.22;;
39448;SDS011;25151;45.566;9.382;2023-07-13T02:55:33;3.33;;;2.20;;
39448;SDS011;25151;45.566;9.382;2023-07-13T02:58:01;3.33;;;1.80;;
39448;SDS011;25151;45.566;9.382;2023-07-13T03:00:31;3.72;;;2.00;;
39448;SDS011;25151;45.566;9.382;2023-07-13T03:03:02;3.50;;;1.92;;
39448;SDS011;25151;45.566;9.382;2023-07-13T03:05:32;5.80;;;2.33;;
39448;SDS011;25151;45.566;9.382;2023-07-13T03:08:03;4.13;;;1.95;;
39448;SDS011;25151;45.566;9.382;2023-07-13T03:10:36;5.50;;;2.20;;
39448;SDS011;25151;45.566;9.382;2023-07-13T03:13:05;3.00;;;2.08;;
39448;SDS011;25151;45.566;9.382;2023-07-13T03:15:32;3.58;;;1.67;;
39448;SDS011;25151;45.566;9.382;2023-07-13T03:18:02;3.42;;;1.88;;
39448;SDS011;25151;45.566;9.382;2023-07-13T03:20:34;3.67;;;2.15;;
39448;SDS011;25151;45.566;9.382;2023-07-13T03:23:06;3.20;;;1.80;;
39448;SDS011;25151;45.566;9.382;2023-07-13T03:28:03;3.63;;;1.98;;
39448;SDS011;25151;45.566;9.382;2023-07-13T03:30:36;3.92;;;2.22;;
39448;SDS011;25151;45.566;9.382;2023-07-13T03:33:03;6.35;;;2.67;;
39448;SDS011;25151;45.566;9.382;2023-07-13T03:35:40;6.47;;;2.65;;
39448;SDS011;25151;45.566;9.382;2023-07-13T03:38:15;5.95;;;2.83;;
39448;SDS011;25151;45.566;9.382;2023-07-13T03:40:47;6.75;;;3.90;;
39448;SDS011;25151;45.566;9.382;2023-07-13T03:43:15;6.45;;;3.17;;
39448;SDS011;25151;45.566;9.382;2023-07-13T03:45:48;10.02;;;3.70;;
39448;SDS011;25151;45.566;9.382;2023-07-13T03:48:18;12.90;;;4.25;;
39448;SDS011;25151;45.566;9.382;2023-07-13T03:50:51;7.15;;;3.20;;
39448;SDS011;25151;45.566;9.382;2023-07-13T03:53:24;8.32;;;3.90;;
39448;SDS011;25151;45.566;9.382;2023-07-13T03:55:57;6.55;;;3.80;;
39448;SDS011;25151;45.566;9.382;2023-07-13T03:58:37;10.85;;;3.97;;
39448;SDS011;25151;45.566;9.382;2023-07-13T04:01:08;7.50;;;3.97;;
39448;SDS011;25151;45.566;9.382;2023-07-13T04:03:39;7.75;;;3.70;;
39448;SDS011;25151;45.566;9.382;2023-07-13T04:06:07;7.25;;;4.00;;
39448;SDS011;25151;45.566;9.382;2023-07-13T04:08:53;9.75;;;3.92;;
39448;SDS011;25151;45.566;9.382;2023-07-13T04:11:26;9.20;;;4.25;;
39448;SDS011;25151;45.566;9.382;2023-07-13T04:13:57;9.25;;;4.35;;
39448;SDS011;25151;45.566;9.382;2023-07-13T04:16:29;7.03;;;3.50;;
39448;SDS011;25151;45.566;9.382;2023-07-13T04:18:59;7.68;;;3.60;;
39448;SDS011;25151;45.566;9.382;2023-07-13T04:21:28;8.23;;;3.80;;
39448;SDS011;25151;45.566;9.382;2023-07-13T04:24:01;6.95;;;3.70;;
39448;SDS011;25151;45.566;9.382;2023-07-13T04:26:34;6.70;;;3.53;;
39448;SDS011;25151;45.566;9.382;2023-07-13T04:29:09;5.88;;;3.22;;
39448;SDS011;25151;45.566;9.382;2023-07-13T04:31:43;6.72;;;3.17;;
39448;SDS011;25151;45.566;9.382;2023-07-13T04:34:20;5.10;;;2.80;;
39448;SDS011;25151;45.566;9.382;2023-07-13T04:36:50;9.68;;;3.85;;
39448;SDS011;25151;45.566;9.382;2023-07-13T04:39:24;6.72;;;3.22;;
39448;SDS011;25151;45.566;9.382;2023-07-13T04:41:54;6.07;;;2.90;;
39448;SDS011;25151;45.566;9.382;2023-07-13T04:44:27;11.50;;;2.75;;
39448;SDS011;25151;45.566;9.382;2023-07-13T04:47:01;6.22;;;2.42;;
39448;SDS011;25151;45.566;9.382;2023-07-13T04:49:34;5.55;;;3.00;;
39448;SDS011;25151;45.566;9.382;2023-07-13T04:52:07;6.88;;;2.75;;
39448;SDS011;25151;45.566;9.382;2023-07-13T04:54:40;9.07;;;2.38;;
39448;SDS011;25151;45.566;9.382;2023-07-13T04:57:07;6.85;;;2.47;;
39448;SDS011;25151;45.566;9.382;2023-07-13T04:59:40;6.80;;;2.60;;
39448;SDS011;25151;45.566;9.382;2023-07-13T05:02:13;9.05;;;2.38;;
39448;SDS011;25151;45.566;9.382;2023-07-13T05:04:47;4.75;;;2.33;;
39448;SDS011;25151;45.566;9.382;2023-07-13T05:07:21;7.50;;;2.95;;
39448;SDS011;25151;45.566;9.382;2023-07-13T05:09:49;9.48;;;2.55;;
39448;SDS011;25151;45.566;9.382;2023-07-13T05:12:20;10.40;;;2.55;;
39448;SDS011;25151;45.566;9.382;2023-07-13T05:14:51;5.80;;;2.20;;
39448;SDS011;25151;45.566;9.382;2023-07-13T05:17:19;10.40;;;2.30;;
39448;SDS011;25151;45.566;9.382;2023-07-13T05:19:50;9.40;;;2.67;;
39448;SDS011;25151;45.566;9.382;2023-07-13T05:24:50;5.32;;;1.80;;
39448;SDS011;25151;45.566;9.382;2023-07-13T05:27:26;6.55;;;2.25;;
39448;SDS011;25151;45.566;9.382;2023-07-13T05:29:58;6.03;;;2.38;;
39448;SDS011;25151;45.566;9.382;2023-07-13T05:32:32;5.63;;;2.50;;
39448;SDS011;25151;45.566;9.382;2023-07-13T05:35:04;7.38;;;2.50;;
39448;SDS011;25151;45.566;9.382;2023-07-13T05:37:36;4.70;;;2.28;;
39448;SDS011;25151;45.566;9.382;2023-07-13T05:40:09;9.50;;;2.40;;
39448;SDS011;25151;45.566;9.382;2023-07-13T05:42:46;8.82;;;2.88;;
39448;SDS011;25151;45.566;9.382;2023-07-13T05:45:17;6.15;;;2.88;;
39448;SDS011;25151;45.566;9.382;2023-07-13T05:47:49;7.78;;;2.65;;
39448;SDS011;25151;45.566;9.382;2023-07-13T05:50:22;9.65;;;2.67;;
39448;SDS011;25151;45.566;9.382;2023-07-13T05:52:51;4.60;;;2.20;;
39448;SDS011;25151;45.566;9.382;2023-07-13T05:55:21;6.50;;;2.60;;
39448;SDS011;25151;45.566;9.382;2023-07-13T06:00:26;6.28;;;2.00;;
39448;SDS011;25151;45.566;9.382;2023-07-13T06:02:53;6.45;;;2.47;;
39448;SDS011;25151;45.566;9.382;2023-07-13T06:05:24;9.38;;;2.83;;
39448;SDS011;25151;45.566;9.382;2023-07-13T06:07:55;10.90;;;2.85;;
39448;SDS011;25151;45.566;9.382;2023-07-13T06:10:23;10.00;;;2.47;;
39448;SDS011;25151;45.566;9.382;2023-07-13T06:12:56;6.18;;;2.45;;
39448;SDS011;25151;45.566;9.382;2023-07-13T06:15:32;9.70;;;2.78;;
39448;SDS011;25151;45.566;9.382;2023-07-13T06:18:00;7.38;;;1.70;;
39448;SDS011;25151;45.566;9.382;2023-07-13T06:20:28;6.57;;;1.83;;
39448;SDS011;25151;45.566;9.382;2023-07-13T06:22:59;8.52;;;1.90;;
39448;SDS011;25151;45.566;9.382;2023-07-13T06:25:29;10.32;;;1.70;;
39448;SDS011;25151;45.566;9.382;2023-07-13T06:27:59;7.32;;;1.98;;
39448;SDS011;25151;45.566;9.382;2023-07-13T06:30:31;5.63;;;1.73;;
39448;SDS011;25151;45.566;9.382;2023-07-13T06:32:58;6.47;;;1.63;;
39448;SDS011;25151;45.566;9.382;2023-07-13T06:35:26;3.75;;;1.70;;
39448;SDS011;25151;45.566;9.382;2023-07-13T06:37:55;2.17;;;1.27;;
39448;SDS011;25151;45.566;9.382;2023-07-13T06:40:24;3.78;;;1.40;;
39448;SDS011;25151;45.566;9.382;2023-07-13T06:42:56;4.55;;;1.33;;
39448;SDS011;25151;45.566;9.382;2023-07-13T06:45:29;5.18;;;1.52;;
39448;SDS011;25151;45.566;9.382;2023-07-13T06:48:05;4.85;;;1.60;;
39448;SDS011;25151;45.566;9.382;2023-07-13T06:50:38;5.40;;;1.55;;
39448;SDS011;25151;45.566;9.382;2023-07-13T06:53:08;13.20;;;3.35;;
39448;SDS011;25151;45.566;9.382;2023-07-13T06:55:38;17.48;;;4.80;;
39448;SDS011;25151;45.566;9.382;2023-07-13T06:58:05;17.23;;;4.65;;
39448;SDS011;25151;45.566;9.382;2023-07-13T07:00:33;15.55;;;4.35;;
39448;SDS011;25151;45.566;9.382;2023-07-13T07:03:00;14.95;;;4.28;;
39448;SDS011;25151;45.566;9.382;2023-07-13T07:05:28;18.15;;;4.40;;
39448;SDS011;25151;45.566;9.382;2023-07-13T07:08:01;9.48;;;3.85;;
39448;SDS011;25151;45.566;9.382;2023-07-13T07:10:31;16.67;;;4.25;;
39448;SDS011;25151;45.566;9.382;2023-07-13T07:13:02;12.27;;;3.60;;
39448;SDS011;25151;45.566;9.382;2023-07-13T07:15:32;13.32;;;4.07;;
39448;SDS011;25151;45.566;9.382;2023-07-13T07:18:04;13.18;;;3.38;;
39448;SDS011;25151;45.566;9.382;2023-07-13T07:20:34;10.40;;;3.65;;
39448;SDS011;25151;45.566;9.382;2023-07-13T07:23:04;13.23;;;4.30;;
39448;SDS011;25151;45.566;9.382;2023-07-13T07:28:02;10.32;;;3.72;;
39448;SDS011;25151;45.566;9.382;2023-07-13T07:30:32;11.30;;;4.10;;
39448;SDS011;25151;45.566;9.382;2023-07-13T07:33:02;14.15;;;4.05;;
39448;SDS011;25151;45.566;9.382;2023-07-13T07:35:34;13.80;;;4.43;;
39448;SDS011;25151;45.566;9.382;2023-07-13T07:38:08;12.18;;;3.85;;
39448;SDS011;25151;45.566;9.382;2023-07-13T07:40:39;16.98;;;4.47;;
39448;SDS011;25151;45.566;9.382;2023-07-13T07:43:10;10.98;;;3.53;;
39448;SDS011;25151;45.566;9.382;2023-07-13T07:45:44;12.00;;;4.35;;
39448;SDS011;25151;45.566;9.382;2023-07-13T07:48:14;14.98;;;5.20;;
39448;SDS011;25151;45.566;9.382;2023-07-13T07:50:44;12.05;;;4.80;;
39448;SDS011;25151;45.566;9.382;2023-07-13T07:53:11;12.63;;;4.28;;
39448;SDS011;25151;45.566;9.382;2023-07-13T07:55:40;13.65;;;4.55;;
39448;SDS011;25151;45.566;9.382;2023-07-13T07:58:10;11.60;;;4.22;;
39448;SDS011;25151;45.566;9.382;2023-07-13T08:00:38;11.57;;;4.18;;
39448;SDS011;25151;45.566;9.382;2023-07-13T08:03:09;10.43;;;4.78;;
39448;SDS011;25151;45.566;9.382;2023-07-13T08:05:36;12.68;;;4.93;;
39448;SDS011;25151;45.566;9.382;2023-07-13T08:08:03;15.85;;;4.75;;
39448;SDS011;25151;45.566;9.382;2023-07-13T08:10:34;12.20;;;3.83;;
39448;SDS011;25151;45.566;9.382;2023-07-13T08:13:08;10.70;;;3.90;;
39448;SDS011;25151;45.566;9.382;2023-07-13T08:15:35;10.05;;;3.92;;
39448;SDS011;25151;45.566;9.382;2023-07-13T08:18:06;11.32;;;3.72;;
39448;SDS011;25151;45.566;9.382;2023-07-13T08:20:37;11.43;;;4.18;;
39448;SDS011;25151;45.566;9.382;2023-07-13T08:23:07;10.10;;;4.10;;
39448;SDS011;25151;45.566;9.382;2023-07-13T08:25:41;10.50;;;3.97;;
39448;SDS011;25151;45.566;9.382;2023-07-13T08:28:16;7.88;;;3.53;;
39448;SDS011;25151;45.566;9.382;2023-07-13T08:30:49;9.27;;;3.55;;
39448;SDS011;25151;45.566;9.382;2023-07-13T08:33:19;10.77;;;3.63;;
39448;SDS011;25151;45.566;9.382;2023-07-13T08:35:49;9.60;;;3.58;;
39448;SDS011;25151;45.566;9.382;2023-07-13T08:38:24;9.43;;;3.95;;
39448;SDS011;25151;45.566;9.382;2023-07-13T08:43:28;10.50;;;3.58;;
39448;SDS011;25151;45.566;9.382;2023-07-13T08:47:00;9.45;;;3.72;;
39448;SDS011;25151;45.566;9.382;2023-07-13T08:49:11;9.98;;;4.25;;
39448;SDS011;25151;45.566;9.382;2023-07-13T08:51:53;11.13;;;4.03;;
39448;SDS011;25151;45.566;9.382;2023-07-13T08:55:01;8.98;;;3.95;;
39448;SDS011;25151;45.566;9.382;2023-07-13T08:57:26;7.30;;;3.00;;
39448;SDS011;25151;45.566;9.382;2023-07-13T08:59:58;8.20;;;3.65;;
39448;SDS011;25151;45.566;9.382;2023-07-13T09:05:17;14.05;;;4.25;;
39448;SDS011;25151;45.566;9.382;2023-07-13T09:10:49;9.13;;;3.58;;
39448;SDS011;25151;45.566;9.382;2023-07-13T09:16:31;8.48;;;3.25;;
39448;SDS011;25151;45.566;9.382;2023-07-13T09:19:07;6.97;;;3.38;;
39448;SDS011;25151;45.566;9.382;2023-07-13T09:21:41;8.93;;;3.47;;
39448;SDS011;25151;45.566;9.382;2023-07-13T09:27:15;12.15;;;3.92;;
39448;SDS011;25151;45.566;9.382;2023-07-13T09:30:02;10.20;;;4.03;;
39448;SDS011;25151;45.566;9.382;2023-07-13T09:32:45;7.32;;;3.40;;
39448;SDS011;25151;45.566;9.382;2023-07-13T09:35:21;9.80;;;3.50;;
39448;SDS011;25151;45.566;9.382;2023-07-13T09:38:03;9.40;;;3.45;;
39448;SDS011;25151;45.566;9.382;2023-07-13T09:40:53;8.88;;;3.70;;
39448;SDS011;25151;45.566;9.382;2023-07-13T09:43:34;7.68;;;3.92;;
39448;SDS011;25151;45.566;9.382;2023-07-13T09:46:04;7.53;;;3.67;;
39448;SDS011;25151;45.566;9.382;2023-07-13T09:48:50;7.63;;;3.08;;
39448;SDS011;25151;45.566;9.382;2023-07-13T09:51:18;7.50;;;3.13;;
39448;SDS011;25151;45.566;9.382;2023-07-13T09:53:50;8.23;;;3.35;;
39448;SDS011;25151;45.566;9.382;2023-07-13T09:56:26;5.93;;;3.33;;
39448;SDS011;25151;45.566;9.382;2023-07-13T09:58:59;7.88;;;3.42;;
39448;SDS011;25151;45.566;9.382;2023-07-13T10:01:36;6.85;;;3.25;;
39448;SDS011;25151;45.566;9.382;2023-07-13T10:04:19;7.25;;;3.28;;
39448;SDS011;25151;45.566;9.382;2023-07-13T10:07:04;10.98;;;4.15;;
39448;SDS011;25151;45.566;9.382;2023-07-13T10:09:38;6.30;;;2.80;;
39448;SDS011;25151;45.566;9.382;2023-07-13T10:12:15;8.70;;;3.33;;
39448;SDS011;25151;45.566;9.382;2023-07-13T10:14:52;8.75;;;3.55;;
39448;SDS011;25151;45.566;9.382;2023-07-13T10:17:34;7.28;;;3.17;;
39448;SDS011;25151;45.566;9.382;2023-07-13T10:20:03;7.43;;;3.08;;
39448;SDS011;25151;45.566;9.382;2023-07-13T10:22:44;5.72;;;3.13;;
39448;SDS011;25151;45.566;9.382;2023-07-13T10:25:36;7.93;;;3.65;;
39448;SDS011;25151;45.566;9.382;2023-07-13T10:31:11;6.78;;;2.70;;
39448;SDS011;25151;45.566;9.382;2023-07-13T10:33:45;9.82;;;3.63;;
39448;SDS011;25151;45.566;9.382;2023-07-13T10:38:57;7.50;;;2.45;;
39448;SDS011;25151;45.566;9.382;2023-07-13T10:41:27;8.70;;;3.08;;
39448;SDS011;25151;45.566;9.382;2023-07-13T10:43:56;7.60;;;3.13;;
39448;SDS011;25151;45.566;9.382;2023-07-13T10:46:30;8.13;;;3.33;;
39448;SDS011;25151;45.566;9.382;2023-07-13T10:49:06;7.72;;;3.42;;
39448;SDS011;25151;45.566;9.382;2023-07-13T10:51:40;7.47;;;3.13;;
39448;SDS011;25151;45.566;9.382;2023-07-13T10:54:11;7.28;;;3.00;;
39448;SDS011;25151;45.566;9.382;2023-07-13T10:56:40;7.25;;;3.22;;
39448;SDS011;25151;45.566;9.382;2023-07-13T11:04:29;6.82;;;3.20;;
39448;SDS011;25151;45.566;9.382;2023-07-13T11:07:27;6.07;;;2.70;;
39448;SDS011;25151;45.566;9.382;2023-07-13T11:09:54;6.32;;;3.03;;
39448;SDS011;25151;45.566;9.382;2023-07-13T11:12:50;9.88;;;3.10;;
39448;SDS011;25151;45.566;9.382;2023-07-13T11:15:30;7.93;;;3.28;;
39448;SDS011;25151;45.566;9.382;2023-07-13T11:18:19;8.30;;;3.45;;
39448;SDS011;25151;45.566;9.382;2023-07-13T11:20:50;7.18;;;2.83;;
39448;SDS011;25151;45.566;9.382;2023-07-13T11:23:38;6.85;;;2.90;;
39448;SDS011;25151;45.566;9.382;2023-07-13T11:31:59;5.90;;;2.85;;
39448;SDS011;25151;45.566;9.382;2023-07-13T11:34:47;7.07;;;2.90;;
39448;SDS011;25151;45.566;9.382;2023-07-13T11:37:17;5.55;;;3.05;;
39448;SDS011;25151;45.566;9.382;2023-07-13T11:39:48;5.80;;;3.08;;
39448;SDS011;25151;45.566;9.382;2023-07-13T11:42:20;6.05;;;2.80;;
39448;SDS011;25151;45.566;9.382;2023-07-13T11:44:50;7.40;;;3.15;;
39448;SDS011;25151;45.566;9.382;2023-07-13T11:47:22;6.55;;;2.92;;
39448;SDS011;25151;45.566;9.382;2023-07-13T11:49:54;4.85;;;2.65;;
39448;SDS011;25151;45.566;9.382;2023-07-13T11:52:28;4.90;;;2.70;;
39448;SDS011;25151;45.566;9.382;2023-07-13T11:55:12;5.00;;;2.50;;
39448;SDS011;25151;45.566;9.382;2023-07-13T12:00:27;7.07;;;2.88;;
39448;SDS011;25151;45.566;9.382;2023-07-13T12:02:57;6.18;;;3.30;;
39448;SDS011;25151;45.566;9.382;2023-07-13T12:05:30;4.32;;;2.25;;
39448;SDS011;25151;45.566;9.382;2023-07-13T12:08:03;6.15;;;2.33;;
39448;SDS011;25151;45.566;9.382;2023-07-13T12:10:38;7.22;;;3.33;;
39448;SDS011;25151;45.566;9.382;2023-07-13T12:13:08;5.43;;;2.75;;
39448;SDS011;25151;45.566;9.382;2023-07-13T12:15:42;7.28;;;3.20;;
39448;SDS011;25151;45.566;9.382;2023-07-13T12:18:15;6.00;;;2.97;;
39448;SDS011;25151;45.566;9.382;2023-07-13T12:20:49;5.93;;;2.78;;
39448;SDS011;25151;45.566;9.382;2023-07-13T12:25:55;5.07;;;2.80;;
39448;SDS011;25151;45.566;9.382;2023-07-13T12:28:36;4.95;;;2.65;;
39448;SDS011;25151;45.566;9.382;2023-07-13T12:34:06;5.10;;;2.35;;
39448;SDS011;25151;45.566;9.382;2023-07-13T12:37:01;4.68;;;2.20;;
39448;SDS011;25151;45.566;9.382;2023-07-13T12:39:34;5.90;;;2.90;;
39448;SDS011;25151;45.566;9.382;2023-07-13T12:45:02;5.70;;;2.70;;
39448;SDS011;25151;45.566;9.382;2023-07-13T12:47:43;5.18;;;3.00;;
39448;SDS011;25151;45.566;9.382;2023-07-13T12:50:15;4.68;;;2.38;;
39448;SDS011;25151;45.566;9.382;2023-07-13T12:52:53;5.53;;;3.00;;
39448;SDS011;25151;45.566;9.382;2023-07-13T12:55:23;4.85;;;2.28;;
39448;SDS011;25151;45.566;9.382;2023-07-13T12:57:54;5.68;;;2.42;;
39448;SDS011;25151;45.566;9.382;2023-07-13T13:00:22;6.47;;;3.08;;
39448;SDS011;25151;45.566;9.382;2023-07-13T13:03:05;4.32;;;2.35;;
39448;SDS011;25151;45.566;9.382;2023-07-13T13:05:47;4.88;;;2.88;;
39448;SDS011;25151;45.566;9.382;2023-07-13T13:08:25;5.38;;;2.40;;
39448;SDS011;25151;45.566;9.382;2023-07-13T13:10:54;4.15;;;2.13;;
39448;SDS011;25151;45.566;9.382;2023-07-13T13:13:23;4.30;;;2.38;;
39448;SDS011;25151;45.566;9.382;2023-07-13T13:15:55;4.38;;;2.38;;
39448;SDS011;25151;45.566;9.382;2023-07-13T13:18:27;6.82;;;2.78;;
39448;SDS011;25151;45.566;9.382;2023-07-13T13:21:02;5.13;;;2.60;;
39448;SDS011;25151;45.566;9.382;2023-07-13T13:23:32;4.53;;;2.33;;
39448;SDS011;25151;45.566;9.382;2023-07-13T13:25:59;4.55;;;2.42;;
39448;SDS011;25151;45.566;9.382;2023-07-13T13:28:33;6.32;;;2.63;;
39448;SDS011;25151;45.566;9.382;2023-07-13T13:31:04;4.53;;;2.50;;
39448;SDS011;25151;45.566;9.382;2023-07-13T13:33:41;5.00;;;2.45;;
39448;SDS011;25151;45.566;9.382;2023-07-13T13:36:22;4.32;;;1.90;;
39448;SDS011;25151;45.566;9.382;2023-07-13T13:38:56;5.85;;;2.65;;
39448;SDS011;25151;45.566;9.382;2023-07-13T13:41:25;4.57;;;2.15;;
39448;SDS011;25151;45.566;9.382;2023-07-13T13:43:53;4.32;;;2.17;;
39448;SDS011;25151;45.566;9.382;2023-07-13T13:46:21;3.90;;;2.17;;
39448;SDS011;25151;45.566;9.382;2023-07-13T13:48:51;4.72;;;2.40;;
39448;SDS011;25151;45.566;9.382;2023-07-13T13:51:21;5.07;;;2.55;;
39448;SDS011;25151;45.566;9.382;2023-07-13T13:53:55;5.38;;;2.33;;
39448;SDS011;25151;45.566;9.382;2023-07-13T13:56:27;4.10;;;2.30;;
39448;SDS011;25151;45.566;9.382;2023-07-13T13:58:54;4.07;;;2.75;;
39448;SDS011;25151;45.566;9.382;2023-07-13T14:01:24;4.10;;;2.58;;
39448;SDS011;25151;45.566;9.382;2023-07-13T14:04:00;4.18;;;2.30;;
39448;SDS011;25151;45.566;9.382;2023-07-13T14:06:34;4.10;;;2.35;;
39448;SDS011;25151;45.566;9.382;2023-07-13T14:09:13;4.05;;;2.35;;
39448;SDS011;25151;45.566;9.382;2023-07-13T14:11:44;4.75;;;2.58;;
39448;SDS011;25151;45.566;9.382;2023-07-13T14:14:20;3.58;;;2.17;;
39448;SDS011;25151;45.566;9.382;2023-07-13T14:16:52;4.70;;;2.42;;
39448;SDS011;25151;45.566;9.382;2023-07-13T14:19:25;3.92;;;2.28;;
39448;SDS011;25151;45.566;9.382;2023-07-13T14:21:52;3.58;;;1.88;;
39448;SDS011;25151;45.566;9.382;2023-07-13T14:24:22;4.35;;;2.38;;
39448;SDS011;25151;45.566;9.382;2023-07-13T14:26:52;4.55;;;2.17;;
39448;SDS011;25151;45.566;9.382;2023-07-13T14:29:21;4.65;;;2.28;;
39448;SDS011;25151;45.566;9.382;2023-07-13T14:31:48;3.85;;;2.03;;
39448;SDS011;25151;45.566;9.382;2023-07-13T14:34:14;5.68;;;2.60;;
39448;SDS011;25151;45.566;9.382;2023-07-13T14:36:43;5.53;;;2.47;;
39448;SDS011;25151;45.566;9.382;2023-07-13T14:39:15;3.95;;;2.17;;
39448;SDS011;25151;45.566;9.382;2023-07-13T14:41:44;4.63;;;2.47;;
39448;SDS011;25151;45.566;9.382;2023-07-13T14:44:17;3.95;;;2.40;;
39448;SDS011;25151;45.566;9.382;2023-07-13T14:46:48;3.88;;;2.15;;
39448;SDS011;25151;45.566;9.382;2023-07-13T14:51:52;4.07;;;2.28;;
39448;SDS011;25151;45.566;9.382;2023-07-13T14:54:25;3.50;;;2.33;;
39448;SDS011;25151;45.566;9.382;2023-07-13T14:56:52;4.00;;;2.13;;
39448;SDS011;25151;45.566;9.382;2023-07-13T14:59:28;3.58;;;2.10;;
39448;SDS011;25151;45.566;9.382;2023-07-13T15:02:01;4.60;;;1.80;;
39448;SDS011;25151;45.566;9.382;2023-07-13T15:04:29;3.80;;;2.33;;
39448;SDS011;25151;45.566;9.382;2023-07-13T15:07:00;5.57;;;2.35;;
39448;SDS011;25151;45.566;9.382;2023-07-13T15:09:32;4.30;;;2.42;;
39448;SDS011;25151;45.566;9.382;2023-07-13T15:12:03;7.95;;;2.17;;
39448;SDS011;25151;45.566;9.382;2023-07-13T15:14:30;4.47;;;2.22;;
39448;SDS011;25151;45.566;9.382;2023-07-13T15:17:10;3.97;;;2.13;;
39448;SDS011;25151;45.566;9.382;2023-07-13T15:23:01;4.72;;;2.35;;
39448;SDS011;25151;45.566;9.382;2023-07-13T15:25:32;3.67;;;2.28;;
39448;SDS011;25151;45.566;9.382;2023-07-13T15:28:02;2.88;;;1.77;;
39448;SDS011;25151;45.566;9.382;2023-07-13T15:30:29;5.78;;;1.77;;
39448;SDS011;25151;45.566;9.382;2023-07-13T15:33:15;4.35;;;1.90;;
39448;SDS011;25151;45.566;9.382;2023-07-13T15:35:51;4.60;;;2.72;;
39448;SDS011;25151;45.566;9.382;2023-07-13T15:38:25;3.45;;;2.10;;
39448;SDS011;25151;45.566;9.382;2023-07-13T15:40:58;4.10;;;2.28;;
39448;SDS011;25151;45.566;9.382;2023-07-13T15:43:25;3.85;;;2.33;;
39448;SDS011;25151;45.566;9.382;2023-07-13T15:45:59;5.47;;;2.30;;
39448;SDS011;25151;45.566;9.382;2023-07-13T15:48:34;3.50;;;2.03;;
39448;SDS011;25151;45.566;9.382;2023-07-13T15:51:01;6.97;;;2.50;;
39448;SDS011;25151;45.566;9.382;2023-07-13T15:53:34;2.72;;;1.70;;
39448;SDS011;25151;45.566;9.382;2023-07-13T15:56:20;4.05;;;2.17;;
39448;SDS011;25151;45.566;9.382;2023-07-13T15:58:55;4.05;;;2.10;;
39448;SDS011;25151;45.566;9.382;2023-07-13T16:01:24;3.40;;;2.10;;
39448;SDS011;25151;45.566;9.382;2023-07-13T16:03:55;4.75;;;2.25;;
39448;SDS011;25151;45.566;9.382;2023-07-13T16:06:32;3.92;;;2.22;;
39448;SDS011;25151;45.566;9.382;2023-07-13T16:09:05;3.58;;;2.17;;
39448;SDS011;25151;45.566;9.382;2023-07-13T16:11:34;3.88;;;2.22;;
39448;SDS011;25151;45.566;9.382;2023-07-13T16:14:03;4.30;;;2.65;;
39448;SDS011;25151;45.566;9.382;2023-07-13T16:16:34;3.28;;;1.80;;
39448;SDS011;25151;45.566;9.382;2023-07-13T16:19:04;2.95;;;1.85;;
39448;SDS011;25151;45.566;9.382;2023-07-13T16:21:35;4.05;;;2.17;;
39448;SDS011;25151;45.566;9.382;2023-07-13T16:24:19;3.92;;;2.13;;
39448;SDS011;25151;45.566;9.382;2023-07-13T16:26:47;3.25;;;1.90;;